Time;durP1;ratioP1;P1;durP2;ratioP2;P2;SDS_P1;SDS_P2;PMS_P1;PMS_P2;Temp;Humidity;BMP_temperature;BMP_pressure;BME280_temperature;BME280_humidity;BME280_pressure;Samples;Min_cycle;Max_cycle;Signal;HPM_P1;HPM_P2
2023/05/08 00:01:15;;;;;;;0.82;0.82;;;21.30;91.90;;;;;;5054233;28;20033;-74
2023/05/08 00:03:42;;;;;;;1.38;0.80;;;;;;;;;;5054039;28;20033;-74
2023/05/08 00:06:08;;;;;;;0.70;0.70;;;;;;;;;;5054045;28;20101;-74
2023/05/08 00:08:35;;;;;;;0.90;0.60;;;;;;;;;;5053909;28;20399;-75
2023/05/08 00:11:01;;;;;;;0.85;0.80;;;;;;;;;;5053674;28;20052;-73
2023/05/08 00:13:27;;;;;;;0.77;0.73;;;;;;;;;;5053515;28;20037;-75
2023/05/08 00:15:52;;;;;;;1.20;0.75;;;21.40;80.80;;;;;;5053542;28;20040;-74
2023/05/08 00:18:19;;;;;;;2.03;0.82;;;;;;;;;;5053788;28;20108;-74
2023/05/08 00:20:45;;;;;;;1.08;0.63;;;21.60;92.10;;;;;;5053867;28;20064;-74
2023/05/08 00:23:11;;;;;;;1.00;0.70;;;21.10;92.00;;;;;;5053765;28;20025;-74
2023/05/08 00:25:37;;;;;;;1.10;1.00;;;;;;;;;;5053623;28;20421;-75
2023/05/08 00:28:03;;;;;;;1.02;0.93;;;;;;;;;;5053295;28;20096;-74
2023/05/08 00:30:29;;;;;;;0.55;0.55;;;21.40;92.00;;;;;;5053288;28;20078;-74
2023/05/08 00:32:55;;;;;;;1.35;0.80;;;;;;;;;;5052672;28;20095;-75
2023/05/08 00:35:21;;;;;;;0.70;0.70;;;;;;;;;;5053132;28;20480;-74
2023/05/08 00:37:47;;;;;;;0.73;0.70;;;;;;;;;;5053174;28;20039;-75
2023/05/08 00:40:13;;;;;;;1.00;0.85;;;;;;;;;;5053200;28;20029;-74
2023/05/08 00:42:39;;;;;;;1.17;0.80;;;;;;;;;;5052995;28;20127;-74
2023/05/08 00:45:05;;;;;;;1.25;1.00;;;;;;;;;;5052939;28;20029;-74
2023/05/08 00:47:32;;;;;;;1.02;0.82;;;;;;;;;;5053232;28;20379;-74
2023/05/08 00:49:59;;;;;;;1.50;0.70;;;21.30;74.40;;;;;;5053120;28;20025;-75
2023/05/08 00:52:29;;;;;;;1.17;0.80;;;21.20;60.80;;;;;;5053103;28;20029;-74
2023/05/08 00:54:56;;;;;;;0.85;0.85;;;;;;;;;;5052728;28;20049;-74
2023/05/08 00:57:23;;;;;;;0.82;0.82;;;21.20;59.40;;;;;;5052866;28;20032;-74
2023/05/08 00:59:49;;;;;;;0.90;0.90;;;21.30;88.40;;;;;;5052791;28;20135;-74
2023/05/08 01:02:15;;;;;;;0.95;0.90;;;21.10;92.20;;;;;;5052696;28;20048;-74
2023/05/08 01:04:43;;;;;;;1.13;0.90;;;21.50;92.20;;;;;;5052634;28;20095;-75
2023/05/08 01:07:10;;;;;;;1.63;0.80;;;21.20;60.60;;;;;;5052584;28;20035;-74
2023/05/08 01:09:35;;;;;;;2.53;1.10;;;20.90;92.10;;;;;;5052608;28;20052;-74
2023/05/08 01:12:18;;;;;;;0.70;0.70;;;21.10;60.70;;;;;;5051069;28;20483;-74
2023/05/08 01:14:53;;;;;;;1.10;0.85;;;21.00;56.40;;;;;;5052403;28;20163;-74
2023/05/08 01:17:38;;;;;;;1.67;1.20;;;21.00;91.80;;;;;;5052478;28;20048;-74
2023/05/08 01:20:04;;;;;;;0.70;0.70;;;;;;;;;;5052368;28;20024;-74
2023/05/08 01:22:51;;;;;;;0.82;0.77;;;21.30;59.30;;;;;;5052354;28;20484;-74
2023/05/08 01:25:39;;;;;;;1.40;0.98;;;21.10;56.10;;;;;;5052239;28;20074;-74
2023/05/08 01:28:22;;;;;;;0.63;0.63;;;20.90;80.60;;;;;;5052208;28;20032;-73
2023/05/08 01:31:11;;;;;;;0.90;0.80;;;21.10;56.10;;;;;;5052141;28;20029;-74
2023/05/08 01:34:15;;;;;;;0.68;0.68;;;21.30;67.10;;;;;;5052251;28;20108;-74
2023/05/08 01:37:04;;;;;;;1.58;1.00;;;20.70;92.00;;;;;;5050933;28;20049;-74
2023/05/08 01:39:56;;;;;;;0.90;0.90;;;21.00;92.30;;;;;;5052127;28;20083;-74
2023/05/08 01:42:28;;;;;;;0.75;0.70;;;;;;;;;;5052125;28;20029;-74
2023/05/08 01:45:00;;;;;;;0.80;0.63;;;20.90;61.30;;;;;;5051379;28;20028;-74
2023/05/08 01:47:31;;;;;;;1.00;0.90;;;21.10;60.70;;;;;;5051974;28;20036;-74
2023/05/08 01:50:18;;;;;;;1.10;1.00;;;20.80;92.10;;;;;;5051963;28;20017;-74
2023/05/08 01:53:12;;;;;;;0.63;0.63;;;21.00;56.20;;;;;;5052366;28;20025;-74
2023/05/08 01:55:40;;;;;;;1.00;0.93;;;21.00;60.70;;;;;;5051765;28;20436;-74
2023/05/08 01:58:09;;;;;;;1.35;0.93;;;21.00;60.80;;;;;;5051823;28;20113;-74
2023/05/08 02:00:38;;;;;;;0.95;0.85;;;20.80;92.10;;;;;;5052125;28;20032;-74
2023/05/08 02:03:06;;;;;;;2.97;1.17;;;20.90;60.80;;;;;;5052049;28;20096;-74
2023/05/08 02:05:36;;;;;;;0.80;0.80;;;20.90;60.60;;;;;;5052074;28;20028;-74
2023/05/08 02:08:03;;;;;;;0.80;0.80;;;20.90;60.70;;;;;;5052043;28;20016;-74
2023/05/08 02:10:30;;;;;;;0.93;0.93;;;;;;;;;;5052067;28;20029;-74
2023/05/08 02:12:59;;;;;;;0.90;0.90;;;21.00;60.90;;;;;;5052218;28;20029;-85
2023/05/08 02:15:27;;;;;;;1.52;0.93;;;21.10;92.20;;;;;;5052218;28;20041;-85
2023/05/08 02:17:54;;;;;;;1.20;0.90;;;20.90;61.20;;;;;;5052255;28;20017;-85
2023/05/08 02:20:21;;;;;;;0.90;0.90;;;20.90;60.90;;;;;;5052320;28;20041;-85
2023/05/08 02:22:50;;;;;;;1.08;0.80;;;20.70;92.20;;;;;;5051913;28;20021;-84
2023/05/08 02:25:17;;;;;;;0.98;0.98;;;20.90;61.10;;;;;;5051970;28;20096;-85
2023/05/08 02:27:49;;;;;;;1.05;0.95;;;20.90;60.90;;;;;;5052389;28;20032;-85
2023/05/08 02:30:17;;;;;;;0.80;0.80;;;20.60;92.20;;;;;;5052215;28;20079;-86
2023/05/08 02:32:46;;;;;;;0.90;0.90;;;21.00;92.30;;;;;;5051954;28;20036;-86
2023/05/08 02:35:14;;;;;;;0.80;0.80;;;20.70;62.00;;;;;;5052139;28;20037;-85
2023/05/08 02:37:43;;;;;;;0.93;0.88;;;20.80;61.00;;;;;;5051750;28;20021;-86
2023/05/08 02:40:10;;;;;;;0.93;0.93;;;20.70;92.30;;;;;;5051711;28;20029;-86
2023/05/08 02:42:36;;;;;;;1.00;0.93;;;;;;;;;;5051653;28;20028;-86
2023/05/08 02:45:03;;;;;;;0.90;0.90;;;20.70;60.40;;;;;;5051668;28;20044;-85
2023/05/08 02:47:38;;;;;;;1.15;1.05;;;20.60;92.30;;;;;;5051552;28;20025;-86
2023/05/08 02:50:25;;;;;;;1.17;1.10;;;21.20;92.40;;;;;;5051616;28;20028;-85
2023/05/08 02:52:59;;;;;;;1.08;1.00;;;20.70;92.20;;;;;;5051499;28;20043;-85
2023/05/08 02:55:37;;;;;;;0.80;0.80;;;20.60;66.60;;;;;;5051390;28;20059;-85
2023/05/08 02:58:23;;;;;;;1.00;1.00;;;20.80;58.80;;;;;;5055422;28;20029;-85
2023/05/08 03:00:57;;;;;;;1.08;0.98;;;20.90;92.40;;;;;;5055259;28;20029;-84
2023/05/08 03:03:26;;;;;;;1.02;0.90;;;20.70;61.00;;;;;;5055261;28;20025;-85
2023/05/08 03:05:57;;;;;;;1.73;1.20;;;20.90;92.40;;;;;;5055311;28;20029;-85
2023/05/08 03:08:29;;;;;;;1.08;0.98;;;20.70;92.40;;;;;;5055095;28;20029;-85
2023/05/08 03:10:58;;;;;;;1.13;1.02;;;20.60;92.30;;;;;;5055091;28;20036;-85
2023/05/08 03:13:27;;;;;;;2.47;1.20;;;20.70;61.10;;;;;;5054813;28;20035;-85
2023/05/08 03:16:00;;;;;;;0.70;0.70;;;20.80;90.10;;;;;;5054853;28;20040;-85
2023/05/08 03:18:32;;;;;;;1.10;1.00;;;20.70;60.90;;;;;;5054900;28;20028;-85
2023/05/08 03:21:00;;;;;;;0.95;0.95;;;21.20;66.00;;;;;;5055217;28;20076;-85
2023/05/08 03:23:28;;;;;;;1.30;1.20;;;20.70;61.00;;;;;;5055084;28;20108;-85
2023/05/08 03:25:57;;;;;;;0.95;0.85;;;20.70;61.00;;;;;;5054586;28;20033;-74
2023/05/08 03:28:24;;;;;;;1.30;1.20;;;;;;;;;;5054700;28;20021;-73
2023/05/08 03:30:50;;;;;;;1.10;1.00;;;;;;;;;;5054454;28;20029;-74
2023/05/08 03:33:17;;;;;;;1.33;1.13;;;;;;;;;;5054362;28;20070;-74
2023/05/08 03:35:43;;;;;;;2.35;1.88;;;20.50;60.60;;;;;;5054266;28;20040;-74
2023/05/08 03:38:10;;;;;;;1.02;0.98;;;;;;;;;;5054387;28;20392;-74
2023/05/08 03:40:37;;;;;;;1.73;1.13;;;20.60;92.40;;;;;;5054336;28;20037;-74
2023/05/08 03:43:07;;;;;;;0.82;0.82;;;20.50;92.20;;;;;;5058166;28;20044;-85
2023/05/08 03:45:40;;;;;;;1.05;1.00;;;20.50;92.30;;;;;;5066150;28;20029;-84
2023/05/08 03:48:07;;;;;;;1.23;1.13;;;20.70;92.40;;;;;;5066339;28;20104;-85
2023/05/08 03:50:36;;;;;;;1.17;1.08;;;20.80;92.20;;;;;;5065658;28;20029;-85
2023/05/08 03:53:03;;;;;;;1.53;1.20;;;;;;;;;;5057402;28;20074;-85
2023/05/08 03:55:32;;;;;;;1.20;1.10;;;20.60;61.20;;;;;;5054822;28;20307;-85
2023/05/08 03:58:07;;;;;;;1.25;1.15;;;20.70;92.60;;;;;;5054767;28;20518;-85
2023/05/08 04:07:09;;;;;;;1.00;1.00;;;20.60;92.60;;;;;;5061417;28;20490;-78
2023/05/08 04:09:59;;;;;;;1.08;1.00;;;20.70;92.60;;;;;;5054039;28;20029;-79
2023/05/08 04:12:38;;;;;;;1.90;1.25;;;20.70;87.00;;;;;;5053829;28;20056;-79
2023/05/08 04:15:08;;;;;;;1.17;1.08;;;20.60;61.30;;;;;;5053703;28;20044;-78
2023/05/08 04:17:37;;;;;;;;;;;20.60;61.20;;;;;;5054056;28;20021;-76
2023/05/08 04:20:05;;;;;;;1.05;1.05;;;20.30;92.60;;;;;;5053703;28;19905;-79
2023/05/08 04:22:32;;;;;;;1.30;1.20;;;20.60;61.30;;;;;;5053858;28;20090;-79
2023/05/08 04:25:02;;;;;;;1.45;1.10;;;20.90;92.50;;;;;;5053413;28;20017;-79
2023/05/08 04:27:29;;;;;;;1.45;1.35;;;20.80;92.60;;;;;;5054033;28;20033;-79
2023/05/08 04:29:55;;;;;;;1.63;1.20;;;20.50;58.80;;;;;;5053764;28;20040;-79
2023/05/08 04:32:22;;;;;;;1.10;1.00;;;;;;;;;;5053468;28;20024;-79
2023/05/08 04:34:48;;;;;;;1.20;1.10;;;;;;;;;;5053454;28;20147;-79
2023/05/08 04:37:24;;;;;;;1.35;1.25;;;20.70;92.50;;;;;;5053592;28;20021;-76
2023/05/08 04:39:51;;;;;;;1.23;1.13;;;;;;;;;;5053438;28;20032;-76
2023/05/08 04:42:17;;;;;;;1.15;1.05;;;;;;;;;;5053242;28;20032;-76
2023/05/08 04:44:42;;;;;;;1.10;0.90;;;20.80;92.70;;;;;;5053363;28;20025;-76
2023/05/08 04:47:08;;;;;;;1.55;1.45;;;;;;;;;;5053178;28;20037;-76
2023/05/08 04:49:34;;;;;;;2.25;1.00;;;;;;;;;;5052937;28;20052;-76
2023/05/08 04:52:00;;;;;;;1.52;1.25;;;;;;;;;;5053067;28;20525;-76
2023/05/08 04:54:26;;;;;;;1.30;1.17;;;;;;;;;;5052778;28;20043;-79
2023/05/08 04:56:52;;;;;;;1.77;1.67;;;20.50;92.60;;;;;;5052965;28;20106;-78
2023/05/08 04:59:17;;;;;;;1.13;0.90;;;20.50;78.00;;;;;;5053053;28;20049;-79
2023/05/08 05:01:46;;;;;;;1.30;1.20;;;20.50;61.60;;;;;;5052430;28;20044;-79
2023/05/08 05:04:11;;;;;;;1.38;1.27;;;;;;;;;;5052745;28;20025;-78
2023/05/08 05:06:38;;;;;;;1.30;1.20;;;;;;;;;;5052913;28;20115;-79
2023/05/08 05:09:05;;;;;;;1.30;1.20;;;;;;;;;;5052682;28;20035;-79
2023/05/08 05:11:30;;;;;;;1.08;1.02;;;20.20;89.30;;;;;;5052538;28;20024;-79
2023/05/08 05:13:56;;;;;;;1.40;1.30;;;20.70;92.80;;;;;;5052589;28;20040;-79
2023/05/08 05:16:22;;;;;;;2.05;1.13;;;;;;;;;;5052500;28;20032;-81
2023/05/08 05:18:48;;;;;;;1.30;1.20;;;;;;;;;;5057188;28;20085;-79
2023/05/08 05:21:14;;;;;;;1.40;1.30;;;20.80;77.50;;;;;;5054570;28;20109;-74
2023/05/08 05:23:40;;;;;;;1.63;1.08;;;;;;;;;;5057089;28;20130;-79
2023/05/08 05:26:06;;;;;;;1.77;1.40;;;;;;;;;;5055478;28;20036;-78
2023/05/08 05:28:32;;;;;;;1.20;1.10;;;;;;;;;;5052332;28;20028;-79
2023/05/08 05:30:58;;;;;;;1.45;1.23;;;;;;;;;;5052506;28;20028;-75
2023/05/08 05:33:24;;;;;;;1.27;1.17;;;;;;;;;;5052549;28;20029;-76
2023/05/08 05:35:50;;;;;;;1.15;1.05;;;20.50;86.50;;;;;;5052142;28;20043;-78
2023/05/08 05:38:16;;;;;;;1.25;1.15;;;;;;;;;;5052343;28;20029;-76
2023/05/08 05:40:42;;;;;;;1.60;1.48;;;;;;;;;;5034331;28;20060;-76
2023/05/08 05:43:08;;;;;;;1.38;1.27;;;;;;;;;;5051600;28;20464;-75
2023/05/08 05:45:35;;;;;;;1.85;1.38;;;;;;;;;;5051924;28;20100;-75
2023/05/08 05:48:01;;;;;;;1.58;1.48;;;19.90;92.30;;;;;;5052015;28;20105;-76
2023/05/08 05:50:28;;;;;;;1.38;1.23;;;;;;;;;;5051976;28;20029;-76
2023/05/08 05:52:54;;;;;;;1.60;1.50;;;20.30;92.20;;;;;;5052217;28;20533;-76
2023/05/08 05:55:20;;;;;;;2.80;1.23;;;20.10;92.30;;;;;;5051859;28;20075;-77
2023/05/08 05:57:47;;;;;;;1.63;1.50;;;;;;;;;;5051929;28;20032;-76
2023/05/08 06:00:15;;;;;;;3.25;1.60;;;20.40;59.60;;;;;;5052522;28;20025;-76
2023/05/08 06:02:42;;;;;;;3.33;1.55;;;20.30;92.70;;;;;;5051888;28;20044;-76
2023/05/08 06:05:09;;;;;;;1.73;1.42;;;20.40;61.20;;;;;;5052348;28;20025;-76
2023/05/08 06:07:36;;;;;;;3.30;1.52;;;;;;;;;;5051996;28;20044;-76
2023/05/08 06:10:02;;;;;;;1.65;1.52;;;20.60;90.20;;;;;;5051935;28;20506;-76
2023/05/08 06:12:28;;;;;;;1.70;1.45;;;20.50;90.40;;;;;;5052376;28;20387;-76
2023/05/08 06:14:54;;;;;;;2.08;1.80;;;;;;;;;;5051938;28;20024;-75
2023/05/08 06:17:21;;;;;;;2.47;1.63;;;;;;;;;;5052047;28;20044;-75
2023/05/08 06:19:52;;;;;;;2.03;1.83;;;;;;;;;;5051802;28;20104;-76
2023/05/08 06:22:23;;;;;;;1.67;1.58;;;20.30;92.80;;;;;;5052115;28;20029;-76
2023/05/08 06:24:54;;;;;;;;;;;20.00;62.50;;;;;;5052280;28;20029;-76
2023/05/08 06:27:21;;;;;;;1.73;1.63;;;20.50;92.80;;;;;;5052228;28;19975;-76
2023/05/08 06:29:50;;;;;;;4.22;1.63;;;20.30;60.60;;;;;;5052095;28;20020;-75
2023/05/08 06:32:16;;;;;;;4.28;1.70;;;;;;;;;;5054856;28;20483;-76
2023/05/08 06:34:42;;;;;;;2.45;1.70;;;;;;;;;;5055733;28;20404;-76
2023/05/08 06:37:08;;;;;;;2.05;1.65;;;20.60;92.80;;;;;;5055594;28;20071;-76
2023/05/08 06:39:33;;;;;;;3.22;2.30;;;20.20;73.40;;;;;;5055649;28;20017;-76
2023/05/08 06:41:59;;;;;;;2.47;1.70;;;;;;;;;;5055567;28;20434;-75
2023/05/08 06:44:25;;;;;;;4.88;2.30;;;;;;;;;;5055594;28;20033;-76
2023/05/08 06:46:51;;;;;;;3.40;1.60;;;;;;;;;;5055518;28;20082;-77
2023/05/08 06:49:17;;;;;;;2.05;1.90;;;;;;;;;;5055478;28;20036;-77
2023/05/08 06:51:43;;;;;;;2.85;1.90;;;;;;;;;;5055490;28;20036;-77
2023/05/08 06:54:09;;;;;;;2.78;2.05;;;;;;;;;;5055295;28;20104;-76
2023/05/08 06:56:35;;;;;;;2.05;1.92;;;;;;;;;;5055246;28;20454;-75
2023/05/08 06:59:01;;;;;;;3.88;2.40;;;;;;;;;;5054987;28;20067;-77
2023/05/08 07:01:27;;;;;;;3.40;2.60;;;;;;;;;;5054819;28;20040;-76
2023/05/08 07:03:53;;;;;;;4.68;2.80;;;;;;;;;;5055014;28;20025;-76
2023/05/08 07:06:19;;;;;;;2.40;2.20;;;;;;;;;;5055075;28;20032;-76
2023/05/08 07:08:46;;;;;;;3.05;2.00;;;;;;;;;;5055124;28;20459;-75
2023/05/08 07:11:12;;;;;;;2.78;2.40;;;;;;;;;;5055064;28;20028;-76
2023/05/08 07:13:38;;;;;;;3.03;2.35;;;20.40;92.70;;;;;;5055036;28;20028;-77
2023/05/08 07:16:10;;;;;;;2.42;2.20;;;20.20;92.70;;;;;;5054602;28;20029;-76
2023/05/08 07:18:36;;;;;;;3.22;2.10;;;20.50;92.50;;;;;;5054955;28;20028;-73
2023/05/08 07:21:03;;;;;;;3.22;2.40;;;20.20;63.20;;;;;;5054585;28;20035;-76
2023/05/08 07:23:29;;;;;;;4.68;2.38;;;;;;;;;;5054660;28;20032;-76
2023/05/08 07:25:56;;;;;;;2.40;2.20;;;;;;;;;;5054268;28;20501;-76
2023/05/08 07:28:22;;;;;;;2.45;2.03;;;20.60;92.60;;;;;;5054671;28;20051;-78
2023/05/08 07:30:48;;;;;;;2.83;2.03;;;20.50;92.70;;;;;;5054470;28;20478;-75
2023/05/08 07:33:14;;;;;;;2.30;2.10;;;20.40;92.50;;;;;;5054655;28;20032;-75
2023/05/08 07:35:40;;;;;;;2.22;2.10;;;;;;;;;;5054619;28;20033;-77
2023/05/08 07:38:07;;;;;;;2.13;1.98;;;20.50;77.30;;;;;;5054581;28;20387;-77
2023/05/08 07:40:34;;;;;;;2.67;2.40;;;;;;;;;;5054058;28;20021;-77
2023/05/08 07:43:00;;;;;;;3.88;2.85;;;20.60;89.90;;;;;;5054262;28;20491;-77
2023/05/08 07:45:26;;;;;;;3.83;2.80;;;20.30;92.40;;;;;;5054504;28;20029;-76
2023/05/08 07:47:56;;;;;;;3.17;2.30;;;20.40;85.60;;;;;;5054810;28;20028;-77
2023/05/08 07:50:24;;;;;;;5.07;3.47;;;20.50;61.40;;;;;;5054456;28;20078;-77
2023/05/08 07:52:51;;;;;;;7.70;3.40;;;;;;;;;;5054376;28;20071;-77
2023/05/08 07:55:18;;;;;;;3.88;2.50;;;20.60;59.40;;;;;;5054242;28;20037;-77
2023/05/08 07:57:44;;;;;;;8.00;3.25;;;20.70;92.30;;;;;;5054321;28;20028;-77
2023/05/08 08:00:13;;;;;;;5.88;3.03;;;20.40;92.70;;;;;;5054318;28;20082;-77
2023/05/08 08:02:40;;;;;;;4.53;3.17;;;;;;;;;;5053787;28;20061;-77
2023/05/08 08:05:07;;;;;;;9.27;3.80;;;;;;;;;;5054148;28;20451;-78
2023/05/08 08:07:32;;;;;;;8.38;3.53;;;20.70;92.90;;;;;;5053887;28;20025;-77
2023/05/08 08:09:58;;;;;;;6.85;3.67;;;20.60;92.80;;;;;;5053904;28;20552;-79
2023/05/08 08:12:24;;;;;;;10.50;4.07;;;20.80;92.80;;;;;;5053726;28;20803;-76
2023/05/08 08:14:50;;;;;;;7.93;3.45;;;20.60;92.60;;;;;;5053702;28;20068;-76
2023/05/08 08:17:16;;;;;;;5.78;3.40;;;;;;;;;;5053919;28;20026;-76
2023/05/08 08:19:42;;;;;;;6.13;3.50;;;20.10;89.50;;;;;;5053707;28;20489;-75
2023/05/08 08:22:08;;;;;;;6.53;3.92;;;;;;;;;;5055103;28;20024;-76
2023/05/08 08:24:34;;;;;;;4.93;3.65;;;;;;;;;;5053495;28;20060;-76
2023/05/08 08:27:00;;;;;;;7.03;3.78;;;;;;;;;;5053573;28;20029;-80
2023/05/08 08:29:26;;;;;;;4.28;3.40;;;;;;;;;;5053549;28;20036;-81
2023/05/08 08:31:52;;;;;;;6.38;4.30;;;20.40;90.40;;;;;;5053855;28;20429;-80
2023/05/08 08:34:18;;;;;;;7.72;4.30;;;;;;;;;;5053339;28;20024;-76
2023/05/08 08:36:44;;;;;;;7.53;4.32;;;;;;;;;;5053527;28;20107;-76
2023/05/08 08:39:10;;;;;;;7.65;4.70;;;;;;;;;;5053390;28;20032;-76
2023/05/08 08:41:38;;;;;;;6.43;4.22;;;21.00;92.50;;;;;;5053375;28;20120;-76
2023/05/08 08:44:04;;;;;;;6.63;4.10;;;20.40;79.90;;;;;;5035618;28;20025;-79
2023/05/08 08:46:32;;;;;;;7.15;4.47;;;20.80;92.50;;;;;;5053042;28;20116;-80
2023/05/08 08:49:00;;;;;;;6.07;4.40;;;20.70;60.10;;;;;;5053067;28;20021;-79
2023/05/08 08:51:40;;;;;;;5.75;4.20;;;20.60;77.30;;;;;;5052849;28;20079;-79
2023/05/08 08:54:11;;;;;;;7.20;4.75;;;20.70;57.10;;;;;;5052440;28;20419;-79
2023/05/08 08:56:39;;;;;;;6.72;4.38;;;20.30;92.50;;;;;;5052981;28;20438;-80
2023/05/08 08:59:07;;;;;;;6.90;4.80;;;20.30;92.40;;;;;;5052892;28;20017;-79
2023/05/08 09:01:37;;;;;;;7.20;5.22;;;20.90;92.40;;;;;;5052692;28;20078;-80
2023/05/08 09:04:04;;;;;;;8.25;5.13;;;20.60;92.20;;;;;;5052822;28;20025;-80
2023/05/08 09:06:30;;;;;;;7.75;5.20;;;;;;;;;;5052703;28;20040;-80
2023/05/08 09:08:58;;;;;;;9.50;5.88;;;20.30;59.00;;;;;;5052529;28;20029;-80
2023/05/08 09:11:24;;;;;;;7.45;5.60;;;21.00;92.40;;;;;;5052512;28;20029;-80
2023/05/08 09:13:50;;;;;;;6.15;4.80;;;20.90;92.40;;;;;;5052742;28;20383;-74
2023/05/08 09:16:17;;;;;;;7.38;5.38;;;21.30;92.20;;;;;;5052362;28;20033;-74
2023/05/08 09:18:43;;;;;;;8.52;5.05;;;;;;;;;;5052341;28;20471;-75
2023/05/08 09:21:09;;;;;;;7.05;5.60;;;;;;;;;;5052701;28;20391;-78
2023/05/08 09:23:35;;;;;;;8.73;5.13;;;21.40;92.40;;;;;;5052186;28;20033;-77
2023/05/08 09:26:01;;;;;;;8.88;5.85;;;;;;;;;;5052330;28;20686;-77
2023/05/08 09:28:27;;;;;;;8.43;6.05;;;;;;;;;;5052276;28;20033;-78
2023/05/08 09:30:58;;;;;;;9.63;6.05;;;21.10;57.20;;;;;;5052105;28;20024;-78
2023/05/08 09:33:28;;;;;;;8.70;5.00;;;21.20;61.80;;;;;;5052653;28;20040;-77
2023/05/08 09:35:57;;;;;;;9.23;5.70;;;21.10;67.40;;;;;;5052291;28;20112;-78
2023/05/08 09:38:36;;;;;;;7.15;5.85;;;21.50;92.90;;;;;;5052277;28;20028;-77
2023/05/08 09:41:07;;;;;;;7.72;6.53;;;21.10;92.70;;;;;;5052315;28;20068;-78
2023/05/08 09:43:33;;;;;;;9.40;6.05;;;21.50;92.60;;;;;;5052192;28;20383;-78
2023/05/08 09:46:21;;;;;;;8.30;5.47;;;21.30;92.60;;;;;;5052091;28;20028;-78
2023/05/08 09:48:51;;;;;;;9.70;6.65;;;21.50;92.60;;;;;;5052134;28;20022;-78
2023/05/08 09:51:17;;;;;;;8.80;6.88;;;21.40;92.40;;;;;;5052115;28;20035;-79
2023/05/08 09:53:43;;;;;;;9.95;7.35;;;21.10;92.40;;;;;;5051942;28;20111;-78
2023/05/08 09:56:09;;;;;;;11.70;8.48;;;21.00;92.30;;;;;;5051935;28;20037;-78
2023/05/08 09:58:43;;;;;;;10.05;7.88;;;21.20;78.80;;;;;;5051901;28;20032;-78
2023/05/08 10:01:31;;;;;;;10.73;8.27;;;21.30;61.20;;;;;;5051961;28;20025;-78
2023/05/08 10:03:57;;;;;;;12.63;8.57;;;;;;;;;;5051912;28;20402;-78
2023/05/08 10:06:23;;;;;;;11.50;8.52;;;;;;;;;;5053618;28;20036;-78
2023/05/08 10:09:08;;;;;;;12.80;8.20;;;21.40;61.80;;;;;;5055994;28;20017;-78
2023/05/08 10:11:34;;;;;;;11.40;8.65;;;;;;;;;;5056096;28;20070;-78
2023/05/08 10:14:00;;;;;;;11.77;8.63;;;;;;;;;;5055964;28;20451;-78
2023/05/08 10:16:28;;;;;;;11.57;9.02;;;21.40;61.70;;;;;;5055884;28;20506;-78
2023/05/08 10:18:59;;;;;;;11.23;8.57;;;21.60;72.80;;;;;;5055849;28;20029;-77
2023/05/08 10:21:28;;;;;;;9.02;7.63;;;21.40;61.80;;;;;;5056203;28;20394;-79
2023/05/08 10:23:58;;;;;;;10.75;8.50;;;21.50;61.60;;;;;;5055689;28;20024;-79
2023/05/08 10:26:29;;;;;;;10.75;8.27;;;21.20;92.60;;;;;;5055932;28;20036;-79
2023/05/08 10:28:56;;;;;;;10.05;7.80;;;21.40;61.60;;;;;;5055817;28;20031;-77
2023/05/08 10:31:26;;;;;;;9.60;7.63;;;21.50;61.70;;;;;;5055715;28;20028;-81
2023/05/08 10:33:55;;;;;;;9.68;7.60;;;21.40;61.90;;;;;;5055655;28;20087;-81
2023/05/08 10:36:23;;;;;;;10.82;8.15;;;21.20;92.70;;;;;;5055662;28;20475;-78
2023/05/08 10:38:49;;;;;;;9.45;7.88;;;;;;;;;;5055443;28;20021;-81
2023/05/08 10:41:16;;;;;;;10.38;8.00;;;;;;;;;;5055893;28;20450;-80
2023/05/08 10:43:42;;;;;;;9.50;7.55;;;;;;;;;;5055707;28;20036;-79
2023/05/08 10:46:33;;;;;;;10.32;7.60;;;21.00;92.60;;;;;;5055450;28;20021;-79
2023/05/08 10:49:24;;;;;;;9.20;7.88;;;21.60;61.80;;;;;;5040895;28;20052;-78
2023/05/08 10:52:15;;;;;;;8.20;7.30;;;21.30;79.90;;;;;;5017385;28;20529;-78
2023/05/08 10:55:03;;;;;;;8.88;7.47;;;21.60;62.00;;;;;;5055299;28;20120;-79
2023/05/08 10:57:30;;;;;;;9.13;7.55;;;21.30;92.60;;;;;;5038431;28;20053;-77
2023/05/08 10:59:56;;;;;;;8.80;6.57;;;21.80;76.30;;;;;;5055058;28;20063;-79
2023/05/08 11:02:30;;;;;;;7.90;7.10;;;22.00;58.00;;;;;;5054925;28;20459;-79
2023/05/08 11:05:16;;;;;;;7.35;6.65;;;21.70;57.80;;;;;;5055330;28;20036;-77
2023/05/08 11:08:00;;;;;;;7.38;6.57;;;22.10;90.70;;;;;;5055249;28;20478;-77
2023/05/08 11:10:35;;;;;;;10.00;7.15;;;21.70;71.40;;;;;;5055240;28;20383;-76
2023/05/08 11:13:17;;;;;;;7.78;6.85;;;21.90;60.20;;;;;;5052045;28;20055;-77
2023/05/08 11:15:50;;;;;;;7.28;6.40;;;22.00;92.70;;;;;;5054691;28;20033;-77
2023/05/08 11:18:16;;;;;;;7.88;7.07;;;21.90;92.60;;;;;;5054601;28;20025;-76
2023/05/08 11:21:04;;;;;;;7.82;6.18;;;21.90;61.60;;;;;;5054706;28;20025;-76
2023/05/08 11:23:35;;;;;;;7.10;6.30;;;22.20;92.40;;;;;;5054801;28;20025;-72
2023/05/08 11:26:02;;;;;;;;;;;21.90;62.00;;;;;;5055037;28;20037;-78
2023/05/08 11:28:31;;;;;;;8.40;6.32;;;22.10;61.20;;;;;;5054625;28;20363;-77
2023/05/08 11:31:02;;;;;;;9.63;7.23;;;22.00;60.70;;;;;;5054601;28;20020;-77
2023/05/08 11:33:39;;;;;;;8.45;6.63;;;22.20;60.40;;;;;;5054640;28;20037;-77
2023/05/08 11:36:23;;;;;;;7.82;6.90;;;22.40;92.00;;;;;;5054629;28;20112;-76
2023/05/08 11:39:14;;;;;;;10.02;8.45;;;22.40;56.80;;;;;;5054435;28;20514;-76
2023/05/08 11:41:40;;;;;;;12.10;8.85;;;22.70;79.40;;;;;;5054658;28;20032;-77
2023/05/08 11:44:19;;;;;;;9.95;8.18;;;22.80;83.60;;;;;;5054187;28;20021;-77
2023/05/08 11:46:52;;;;;;;12.70;8.85;;;22.50;91.70;;;;;;5054406;28;20078;-76
2023/05/08 11:49:22;;;;;;;12.82;8.02;;;22.80;59.30;;;;;;5054168;28;20099;-77
2023/05/08 11:51:53;;;;;;;11.43;7.70;;;22.50;91.40;;;;;;5054194;28;20383;-76
2023/05/08 11:54:20;;;;;;;11.07;8.05;;;;;;;;;;5054044;28;20029;-77
2023/05/08 11:56:47;;;;;;;11.68;7.80;;;;;;;;;;5054183;28;20402;-77
2023/05/08 11:59:13;;;;;;;9.63;7.70;;;;;;;;;;5054061;28;20044;-77
2023/05/08 12:01:38;;;;;;;9.68;7.53;;;23.10;91.40;;;;;;5053982;28;20033;-77
2023/05/08 12:04:11;;;;;;;7.30;6.22;;;22.90;55.90;;;;;;5053931;28;20548;-77
2023/05/08 12:06:38;;;;;;;8.57;6.65;;;22.90;91.80;;;;;;5054139;28;20025;-77
2023/05/08 12:09:15;;;;;;;8.93;7.55;;;22.90;56.20;;;;;;5054038;28;20036;-77
2023/05/08 12:11:43;;;;;;;9.10;7.13;;;22.90;91.70;;;;;;5053776;28;20052;-77
2023/05/08 12:14:15;;;;;;;7.40;6.30;;;22.90;58.00;;;;;;5053705;28;20029;-77
2023/05/08 12:16:41;;;;;;;8.43;6.75;;;23.10;92.00;;;;;;5036065;28;20099;-77
2023/05/08 12:19:11;;;;;;;7.95;6.55;;;22.80;56.80;;;;;;5053749;28;20025;-77
2023/05/08 12:21:38;;;;;;;7.30;6.53;;;;;;;;;;5053671;28;20033;-79
2023/05/08 12:24:10;;;;;;;11.27;10.07;;;22.70;56.70;;;;;;5053700;28;20048;-79
2023/05/08 12:26:36;;;;;;;13.32;9.80;;;;;;;;;;5053423;28;20025;-79
2023/05/08 12:29:04;;;;;;;14.80;11.10;;;22.80;60.00;;;;;;5052603;28;20558;-79
2023/05/08 12:31:32;;;;;;;14.40;11.02;;;23.00;91.90;;;;;;5053863;28;20032;-78
2023/05/08 12:33:59;;;;;;;13.70;11.40;;;22.50;91.80;;;;;;5053269;28;20471;-80
2023/05/08 12:36:26;;;;;;;14.55;11.07;;;22.50;91.80;;;;;;5053145;28;20048;-79
2023/05/08 12:38:52;;;;;;;19.17;13.48;;;;;;;;;;5053151;28;20043;-76
2023/05/08 12:41:23;;;;;;;17.88;13.85;;;22.80;59.90;;;;;;5053103;28;20107;-77
2023/05/08 12:43:48;;;;;;;17.25;11.50;;;22.50;91.80;;;;;;5053239;28;20017;-81
2023/05/08 12:46:16;;;;;;;15.38;11.48;;;;;;;;;;5053167;28;20028;-81
2023/05/08 12:48:42;;;;;;;18.25;13.18;;;;;;;;;;5053088;28;20032;-85
2023/05/08 12:51:10;;;;;;;16.73;11.85;;;22.80;60.00;;;;;;5053061;28;20020;-86
2023/05/08 12:53:36;;;;;;;22.60;14.90;;;22.80;60.40;;;;;;5052979;28;20039;-86
2023/05/08 12:56:03;;;;;;;32.45;19.15;;;22.80;60.50;;;;;;5052935;28;20438;-86
2023/05/08 12:58:32;;;;;;;31.90;19.83;;;23.20;91.80;;;;;;5052824;28;20074;-83
2023/05/08 13:01:08;;;;;;;41.17;23.10;;;22.80;57.40;;;;;;5052845;28;20458;-80
2023/05/08 13:03:34;;;;;;;51.70;29.17;;;;;;;;;;5052566;28;20045;-80
2023/05/08 13:06:01;;;;;;;51.55;28.38;;;22.60;83.40;;;;;;5052754;28;20025;-81
2023/05/08 13:08:31;;;;;;;43.95;25.10;;;23.30;90.60;;;;;;5052919;28;20025;-80
2023/05/08 13:10:57;;;;;;;52.20;28.10;;;;;;;;;;5052753;28;20029;-81
2023/05/08 13:13:24;;;;;;;48.72;29.63;;;23.10;57.70;;;;;;5052513;28;20044;-80
2023/05/08 13:15:51;;;;;;;53.72;31.13;;;23.20;57.40;;;;;;5052390;28;20079;-80
2023/05/08 13:18:19;;;;;;;53.22;28.92;;;;;;;;;;5052379;28;20072;-80
2023/05/08 13:20:45;;;;;;;48.40;29.98;;;;;;;;;;5052353;28;20036;-80
2023/05/08 13:23:11;;;;;;;53.03;31.48;;;;;;;;;;5052588;28;20363;-81
2023/05/08 13:25:38;;;;;;;54.30;31.20;;;23.50;57.00;;;;;;5052215;28;20067;-86
2023/05/08 13:28:04;;;;;;;55.08;33.22;;;23.60;57.40;;;;;;5052305;28;20039;-81
2023/05/08 13:30:30;;;;;;;57.30;34.38;;;24.00;90.30;;;;;;5052246;28;20021;-81
2023/05/08 13:32:56;;;;;;;47.63;30.05;;;23.50;90.10;;;;;;5052187;28;20083;-81
2023/05/08 13:35:23;;;;;;;44.90;27.88;;;23.80;56.80;;;;;;5052158;28;20039;-82
2023/05/08 13:37:49;;;;;;;48.25;29.50;;;23.60;90.10;;;;;;5052135;28;20074;-81